Time;durP1;ratioP1;P1;durP2;ratioP2;P2;SDS_P1;SDS_P2;PMS_P1;PMS_P2;Temp;Humidity;BMP_temperature;BMP_pressure;BME280_temperature;BME280_humidity;BME280_pressure;Samples;Min_cycle;Max_cycle;Signal;HPM_P1;HPM_P2
2022/08/19 00:01:47;;;;;;;17.17;10.32;;;22.60;99.10;;;;;;5063735;28;20166;-75
2022/08/19 00:04:14;;;;;;;14.68;10.27;;;22.60;98.90;;;;;;5077516;28;20164;-75
2022/08/19 00:06:44;;;;;;;14.13;9.50;;;22.60;98.70;;;;;;5076952;28;20028;-75
2022/08/19 00:09:11;;;;;;;16.98;10.75;;;22.70;98.70;;;;;;5060832;28;20106;-75
2022/08/19 00:11:37;;;;;;;16.17;10.30;;;22.60;98.70;;;;;;5089948;28;20139;-75
2022/08/19 00:14:05;;;;;;;15.25;10.32;;;22.70;98.60;;;;;;5057759;28;20119;-77
2022/08/19 00:16:31;;;;;;;18.30;10.50;;;22.60;98.60;;;;;;5056695;28;20028;-76
2022/08/19 00:18:57;;;;;;;18.35;10.45;;;22.60;98.50;;;;;;5058036;28;20398;-77
2022/08/19 00:21:25;;;;;;;16.55;11.23;;;22.60;98.40;;;;;;5056988;28;20081;-77
2022/08/19 00:23:51;;;;;;;14.63;10.65;;;22.60;98.20;;;;;;5057840;28;20024;-76
2022/08/19 00:26:17;;;;;;;16.67;11.15;;;22.60;98.20;;;;;;5075354;28;20024;-76
2022/08/19 00:28:43;;;;;;;16.27;10.88;;;22.60;98.10;;;;;;5056989;28;20029;-76
2022/08/19 00:31:09;;;;;;;16.35;10.75;;;22.60;98.00;;;;;;5057714;28;20028;-76
2022/08/19 00:33:35;;;;;;;16.23;11.35;;;22.60;97.90;;;;;;5057408;28;20031;-77
2022/08/19 00:36:02;;;;;;;16.67;10.95;;;22.60;98.20;;;;;;5057732;28;20457;-76
2022/08/19 00:38:28;;;;;;;18.00;11.25;;;22.60;98.40;;;;;;5057062;28;20047;-76
2022/08/19 00:40:54;;;;;;;16.90;10.43;;;22.60;98.60;;;;;;5057439;28;20470;-76
2022/08/19 00:43:23;;;;;;;14.55;10.60;;;22.50;98.80;;;;;;5057442;28;20025;-76
2022/08/19 00:45:49;;;;;;;14.35;10.00;;;22.60;98.90;;;;;;5057709;28;20024;-76
2022/08/19 00:48:16;;;;;;;18.02;10.50;;;22.60;99.20;;;;;;5057889;28;20021;-76
2022/08/19 00:50:43;;;;;;;14.05;10.40;;;22.50;99.50;;;;;;5056796;28;20024;-76
2022/08/19 00:53:17;;;;;;;13.77;10.18;;;22.50;99.40;;;;;;5057517;28;20035;-76
2022/08/19 00:55:46;;;;;;;13.73;10.25;;;22.60;99.60;;;;;;5056506;28;20615;-76
2022/08/19 00:58:14;;;;;;;16.90;10.00;;;22.50;99.90;;;;;;5057461;28;20029;-77
2022/08/19 01:00:40;;;;;;;16.75;10.65;;;22.50;99.90;;;;;;5074516;28;20028;-77
2022/08/19 01:03:09;;;;;;;15.25;10.63;;;22.50;99.90;;;;;;5074380;28;20031;-77
2022/08/19 01:05:37;;;;;;;13.32;9.80;;;22.60;99.90;;;;;;5056824;28;20059;-77
2022/08/19 01:08:05;;;;;;;14.18;10.05;;;22.50;99.90;;;;;;5075024;28;20441;-76
2022/08/19 01:10:36;;;;;;;13.38;9.68;;;22.50;99.90;;;;;;5056717;28;20031;-76
2022/08/19 01:13:03;;;;;;;;;;;22.50;99.90;;;;;;5057559;28;20036;-76
2022/08/19 01:15:43;;;;;;;13.40;9.70;;;22.50;99.90;;;;;;5074421;28;19908;-77
2022/08/19 01:18:13;;;;;;;16.98;10.05;;;22.50;99.90;;;;;;5056987;28;20028;-77
2022/08/19 01:20:41;;;;;;;12.25;9.43;;;22.40;99.90;;;;;;5056341;28;20119;-77
2022/08/19 01:23:07;;;;;;;15.68;9.93;;;22.40;99.90;;;;;;5057421;28;20028;-78
2022/08/19 01:25:54;;;;;;;15.60;10.90;;;22.30;99.90;;;;;;5074069;28;20021;-77
2022/08/19 01:28:23;;;;;;;15.07;10.07;;;22.40;99.90;;;;;;5056937;28;20071;-76
2022/08/19 01:30:49;;;;;;;13.23;9.93;;;22.30;99.90;;;;;;5074377;28;20025;-76
2022/08/19 01:33:15;;;;;;;15.93;10.50;;;22.30;99.90;;;;;;5056740;28;20389;-77
2022/08/19 01:35:42;;;;;;;14.27;10.35;;;22.30;99.90;;;;;;5056316;28;20082;-77
2022/08/19 01:38:19;;;;;;;14.52;10.27;;;22.30;99.90;;;;;;5056633;28;20125;-77
2022/08/19 01:40:44;;;;;;;14.60;10.55;;;22.30;99.90;;;;;;5055698;28;20054;-77
2022/08/19 01:43:10;;;;;;;16.42;10.32;;;22.40;99.90;;;;;;5056477;28;20040;-77
2022/08/19 01:45:39;;;;;;;14.35;9.80;;;22.30;99.90;;;;;;5055870;28;20090;-76
2022/08/19 01:48:08;;;;;;;13.85;10.00;;;22.30;99.90;;;;;;5074260;28;20017;-76
2022/08/19 01:50:35;;;;;;;14.77;10.50;;;22.20;99.90;;;;;;5073151;28;20032;-76
2022/08/19 01:53:04;;;;;;;14.55;9.98;;;22.20;99.90;;;;;;5055906;28;20060;-77
2022/08/19 01:55:29;;;;;;;13.35;9.85;;;22.20;99.90;;;;;;5054997;28;20483;-77
2022/08/19 01:57:59;;;;;;;14.73;10.98;;;22.20;99.90;;;;;;5055753;28;20028;-76
2022/08/19 02:00:29;;;;;;;15.23;10.13;;;22.10;99.90;;;;;;5055748;28;20025;-76
2022/08/19 02:02:55;;;;;;;14.57;10.63;;;22.10;99.90;;;;;;5054713;28;20032;-75
2022/08/19 02:05:21;;;;;;;16.02;10.80;;;22.10;99.90;;;;;;5073269;28;20347;-75
2022/08/19 02:07:47;;;;;;;14.32;10.73;;;22.20;99.90;;;;;;5055007;28;20029;-75
2022/08/19 02:10:17;;;;;;;17.23;10.60;;;22.10;99.90;;;;;;5055359;28;20059;-75
2022/08/19 02:12:43;;;;;;;14.90;11.02;;;22.20;99.90;;;;;;5054591;28;20039;-75
2022/08/19 02:15:09;;;;;;;15.63;10.73;;;22.20;99.90;;;;;;5055523;28;20457;-75
2022/08/19 02:17:35;;;;;;;15.35;11.18;;;22.10;99.90;;;;;;5054971;28;20027;-75
2022/08/19 02:20:01;;;;;;;15.95;11.07;;;22.10;99.90;;;;;;5073446;28;20055;-75
2022/08/19 02:22:27;;;;;;;16.00;11.20;;;22.10;99.90;;;;;;5071718;28;20029;-77
2022/08/19 02:24:53;;;;;;;14.43;10.70;;;22.10;99.90;;;;;;5054947;28;20028;-75
2022/08/19 02:27:19;;;;;;;15.43;11.15;;;22.10;99.90;;;;;;5073131;28;20028;-75
2022/08/19 02:29:50;;;;;;;15.80;11.13;;;22.10;99.90;;;;;;5054621;28;20148;-75
2022/08/19 02:32:19;;;;;;;15.38;11.00;;;22.20;99.90;;;;;;5054883;28;20386;-75
2022/08/19 02:34:45;;;;;;;15.23;11.20;;;22.20;99.90;;;;;;5054270;28;20032;-76
2022/08/19 02:38:25;;;;;;;19.33;11.25;;;22.20;99.90;;;;;;5055433;28;20052;-76
2022/08/19 02:39:56;;;;;;;17.10;11.25;;;22.20;99.90;;;;;;5072533;28;20028;-76
2022/08/19 02:42:23;;;;;;;14.98;11.07;;;22.20;99.90;;;;;;5073355;28;20393;-76
2022/08/19 02:44:48;;;;;;;17.77;10.70;;;22.20;99.90;;;;;;5071405;28;20024;-76
2022/08/19 02:47:14;;;;;;;16.65;11.40;;;22.20;99.90;;;;;;5055262;28;20024;-76
2022/08/19 02:49:40;;;;;;;17.58;11.95;;;22.20;99.90;;;;;;5054760;28;20025;-76
2022/08/19 02:52:06;;;;;;;15.07;10.82;;;22.20;99.90;;;;;;5054927;28;20024;-76
2022/08/19 02:54:32;;;;;;;15.63;11.45;;;22.20;99.90;;;;;;5054635;28;20025;-76
2022/08/19 02:56:58;;;;;;;15.57;10.55;;;22.10;99.90;;;;;;5055334;28;20021;-76
2022/08/19 02:59:24;;;;;;;15.50;10.95;;;22.10;99.90;;;;;;5055195;28;20073;-75
2022/08/19 03:01:50;;;;;;;15.35;11.05;;;22.10;99.90;;;;;;5054548;28;20236;-76
2022/08/19 03:04:16;;;;;;;16.15;10.20;;;22.10;99.90;;;;;;5055277;28;20470;-76
2022/08/19 03:06:44;;;;;;;16.45;11.00;;;22.10;99.90;;;;;;5054533;28;20025;-75
2022/08/19 03:09:10;;;;;;;15.93;10.73;;;22.10;99.90;;;;;;5055175;28;20021;-76
2022/08/19 03:11:37;;;;;;;14.45;10.13;;;22.00;99.90;;;;;;5072125;28;20044;-76
2022/08/19 03:14:05;;;;;;;13.73;10.35;;;22.00;99.90;;;;;;5056266;28;20062;-76
2022/08/19 03:16:44;;;;;;;15.27;10.23;;;22.00;99.90;;;;;;5076425;28;20102;-78
2022/08/19 03:19:10;;;;;;;15.60;10.50;;;21.90;99.90;;;;;;5058685;28;20377;-76
2022/08/19 03:21:36;;;;;;;17.80;10.30;;;21.90;99.90;;;;;;5057999;28;20458;-76
2022/08/19 03:24:05;;;;;;;16.38;11.00;;;21.90;99.90;;;;;;5076390;28;20497;-75
2022/08/19 03:26:31;;;;;;;17.20;11.57;;;21.90;99.90;;;;;;5076220;28;20021;-76
2022/08/19 03:28:57;;;;;;;16.27;11.90;;;21.90;99.90;;;;;;5076299;28;20458;-75
2022/08/19 03:31:24;;;;;;;15.50;10.82;;;21.90;99.90;;;;;;5058571;28;20032;-75
2022/08/19 03:33:50;;;;;;;17.45;10.63;;;21.90;99.90;;;;;;5075886;28;20140;-76
2022/08/19 03:36:20;;;;;;;17.17;11.98;;;21.90;99.90;;;;;;5058837;28;20029;-76
2022/08/19 03:38:57;;;;;;;15.20;10.85;;;21.90;99.90;;;;;;5058208;28;20067;-76
2022/08/19 03:41:32;;;;;;;15.52;10.73;;;21.90;99.90;;;;;;5058403;28;20048;-76
2022/08/19 03:43:58;;;;;;;20.40;11.40;;;21.90;99.90;;;;;;5076291;28;20028;-76
2022/08/19 03:46:28;;;;;;;15.65;11.05;;;21.90;99.90;;;;;;5058884;28;20028;-76
2022/08/19 03:48:56;;;;;;;15.18;10.82;;;21.90;99.90;;;;;;5058261;28;20052;-76
2022/08/19 03:51:34;;;;;;;16.20;11.45;;;21.90;99.90;;;;;;5058387;28;20029;-76
2022/08/19 03:54:03;;;;;;;15.93;11.10;;;21.80;99.90;;;;;;5075879;28;20024;-76
2022/08/19 03:56:29;;;;;;;14.90;11.23;;;21.80;99.90;;;;;;5076153;28;20036;-76
2022/08/19 03:58:57;;;;;;;17.38;12.05;;;21.80;99.90;;;;;;5057930;28;20504;-76
2022/08/19 04:01:26;;;;;;;16.33;11.95;;;21.80;99.90;;;;;;5058237;28;20025;-76
2022/08/19 04:03:52;;;;;;;18.55;11.82;;;21.80;99.90;;;;;;5057591;28;20036;-77
2022/08/19 04:06:22;;;;;;;17.58;11.88;;;21.80;99.90;;;;;;5058178;28;20030;-77
2022/08/19 04:08:50;;;;;;;18.95;12.75;;;21.80;99.90;;;;;;5075443;28;20020;-76
2022/08/19 04:11:23;;;;;;;17.20;12.00;;;21.80;99.90;;;;;;5057620;28;20040;-77
2022/08/19 04:13:50;;;;;;;18.13;12.10;;;21.70;99.90;;;;;;5057384;28;20397;-77
2022/08/19 04:16:17;;;;;;;19.05;12.30;;;21.70;99.90;;;;;;5057991;28;20059;-76
2022/08/19 04:18:43;;;;;;;17.60;12.27;;;21.70;99.90;;;;;;5056827;28;20028;-77
2022/08/19 04:21:19;;;;;;;19.17;13.07;;;21.70;99.90;;;;;;5057435;28;20020;-76
2022/08/19 04:23:45;;;;;;;21.67;13.20;;;21.60;99.90;;;;;;5074179;28;20073;-77
2022/08/19 04:26:22;;;;;;;20.10;12.85;;;21.60;99.90;;;;;;5056461;28;20088;-77
2022/08/19 04:28:48;;;;;;;20.00;13.20;;;21.50;99.90;;;;;;5074709;28;20025;-77
2022/08/19 04:31:20;;;;;;;18.73;13.05;;;21.60;99.90;;;;;;5075226;28;20032;-77
2022/08/19 04:33:46;;;;;;;;;;;21.60;99.90;;;;;;5056918;28;20400;-77
2022/08/19 04:36:21;;;;;;;21.83;13.35;;;21.60;99.90;;;;;;5057104;28;20376;-77
2022/08/19 04:38:48;;;;;;;18.80;12.52;;;21.60;99.90;;;;;;5056601;28;20029;-77
2022/08/19 04:43:59;;;;;;;18.08;12.55;;;21.60;99.90;;;;;;5075035;28;20040;-77
2022/08/19 04:46:25;;;;;;;19.75;13.18;;;21.60;99.90;;;;;;5075399;28;20025;-77
2022/08/19 04:48:51;;;;;;;18.58;12.40;;;21.60;99.90;;;;;;5057055;28;20032;-77
2022/08/19 04:51:16;;;;;;;21.17;12.25;;;21.70;99.90;;;;;;5074033;28;20024;-77
2022/08/19 04:53:42;;;;;;;19.00;12.88;;;21.70;99.90;;;;;;5056730;28;20036;-76
2022/08/19 04:56:14;;;;;;;17.95;12.25;;;21.70;99.90;;;;;;5074908;28;20457;-77
2022/08/19 04:58:42;;;;;;;19.77;12.80;;;21.70;99.90;;;;;;5074328;28;20560;-77
2022/08/19 05:01:12;;;;;;;19.98;13.80;;;21.70;99.90;;;;;;5057505;28;20056;-78
2022/08/19 05:03:39;;;;;;;20.02;13.60;;;21.70;99.90;;;;;;5057122;28;20063;-78
2022/08/19 05:06:10;;;;;;;19.38;12.73;;;21.80;99.90;;;;;;5057227;28;20024;-78
2022/08/19 05:08:37;;;;;;;20.20;12.82;;;21.70;99.90;;;;;;5075101;28;20021;-78
2022/08/19 05:11:09;;;;;;;18.55;13.02;;;21.80;99.90;;;;;;5056631;28;20043;-78
2022/08/19 05:13:35;;;;;;;18.48;13.15;;;21.80;99.90;;;;;;5057348;28;20051;-78
2022/08/19 05:16:00;;;;;;;20.50;12.15;;;21.90;99.90;;;;;;5074429;28;20021;-78
2022/08/19 05:23:58;;;;;;;18.00;12.15;;;21.90;99.90;;;;;;5074040;28;20039;-78
2022/08/19 05:26:28;;;;;;;18.73;11.88;;;21.80;99.90;;;;;;5056739;28;20020;-77
2022/08/19 05:28:55;;;;;;;22.13;12.90;;;21.80;99.90;;;;;;5056204;28;20028;-77
2022/08/19 05:31:21;;;;;;;21.10;12.10;;;21.80;99.90;;;;;;5074386;28;20029;-77
2022/08/19 05:33:47;;;;;;;16.35;12.10;;;21.90;99.90;;;;;;5055937;28;20162;-77
2022/08/19 05:36:13;;;;;;;18.70;12.82;;;21.90;99.90;;;;;;5073131;28;20497;-77
2022/08/19 05:38:39;;;;;;;18.50;11.68;;;21.90;99.90;;;;;;5074015;28;20074;-79
2022/08/19 05:41:12;;;;;;;19.95;13.98;;;22.00;99.90;;;;;;5041069;28;20069;-77
2022/08/19 05:43:38;;;;;;;17.17;12.38;;;22.00;99.90;;;;;;5032628;28;20168;-79
2022/08/19 05:46:07;;;;;;;17.50;12.18;;;22.00;99.90;;;;;;5033444;28;20108;-77
2022/08/19 05:48:35;;;;;;;18.02;12.50;;;22.00;99.90;;;;;;5033821;28;20036;-77
2022/08/19 05:51:06;;;;;;;19.70;12.88;;;22.10;99.90;;;;;;5031723;28;20424;-77
2022/08/19 05:53:33;;;;;;;17.20;12.53;;;22.00;99.90;;;;;;5032594;28;20056;-77
2022/08/19 05:56:11;;;;;;;17.58;12.23;;;22.00;99.90;;;;;;5032150;28;20248;-77
2022/08/19 05:58:38;;;;;;;18.15;12.25;;;22.10;99.90;;;;;;5032860;28;20034;-77
2022/08/19 06:01:10;;;;;;;18.30;12.57;;;22.10;99.90;;;;;;5033891;28;20105;-77
2022/08/19 06:03:37;;;;;;;15.82;11.70;;;22.10;99.90;;;;;;5032608;28;20022;-77
2022/08/19 06:06:03;;;;;;;19.30;12.73;;;22.00;99.90;;;;;;5033083;28;20032;-77
2022/08/19 06:08:29;;;;;;;16.73;12.07;;;22.10;99.90;;;;;;5033595;28;20036;-77
2022/08/19 06:10:56;;;;;;;19.25;11.45;;;22.10;99.90;;;;;;5031919;28;20025;-77
2022/08/19 06:13:22;;;;;;;16.52;11.52;;;22.10;99.90;;;;;;5032611;28;20033;-77
2022/08/19 06:15:48;;;;;;;15.63;11.40;;;22.10;99.90;;;;;;5031661;28;20065;-77
2022/08/19 06:18:15;;;;;;;15.40;11.85;;;22.20;99.90;;;;;;5032525;28;20060;-77
2022/08/19 06:20:41;;;;;;;15.98;11.43;;;22.10;99.90;;;;;;5032143;28;20489;-77
2022/08/19 06:23:08;;;;;;;17.17;11.27;;;22.20;99.90;;;;;;5033166;28;20037;-76
2022/08/19 06:25:34;;;;;;;16.88;11.52;;;22.10;99.90;;;;;;5033268;28;20030;-76
2022/08/19 06:28:00;;;;;;;16.23;11.10;;;22.10;99.90;;;;;;5032322;28;20871;-77
2022/08/19 06:30:26;;;;;;;23.17;11.75;;;22.10;99.90;;;;;;5031607;28;20026;-76
2022/08/19 06:32:52;;;;;;;14.93;11.68;;;22.10;99.90;;;;;;5031410;28;20029;-78
2022/08/19 06:35:18;;;;;;;15.68;11.65;;;22.10;99.90;;;;;;5032387;28;20474;-78
2022/08/19 06:37:44;;;;;;;15.02;11.35;;;22.30;99.90;;;;;;5031598;28;20032;-78
2022/08/19 06:40:10;;;;;;;14.23;10.25;;;22.20;99.90;;;;;;5040017;28;20040;-77
2022/08/19 06:42:38;;;;;;;19.52;11.43;;;22.20;99.90;;;;;;5072788;28;20036;-76
2022/08/19 06:45:05;;;;;;;14.75;11.07;;;22.20;99.90;;;;;;5070699;28;20024;-76
2022/08/19 06:47:32;;;;;;;18.40;11.55;;;22.30;99.90;;;;;;5060469;28;20502;-76
2022/08/19 06:50:03;;;;;;;15.00;11.13;;;22.30;99.90;;;;;;5053232;28;20033;-76
2022/08/19 06:52:32;;;;;;;17.25;11.55;;;22.20;99.90;;;;;;5055061;28;20024;-76
2022/08/19 06:54:58;;;;;;;15.32;11.13;;;22.20;99.90;;;;;;5053997;28;20028;-77
2022/08/19 06:57:25;;;;;;;15.10;11.05;;;22.30;99.90;;;;;;5054744;28;20020;-76
2022/08/19 06:59:51;;;;;;;15.70;10.30;;;22.20;99.90;;;;;;5053939;28;20029;-76
2022/08/19 07:02:18;;;;;;;14.32;10.82;;;22.30;99.90;;;;;;5072470;28;20108;-76
2022/08/19 07:04:43;;;;;;;17.30;10.90;;;22.40;99.70;;;;;;5054252;28;20021;-78
2022/08/19 07:07:12;;;;;;;13.95;10.57;;;22.40;99.60;;;;;;5054445;28;20025;-76
2022/08/19 07:09:40;;;;;;;17.50;11.05;;;22.50;99.60;;;;;;5072541;28;20443;-76
2022/08/19 07:12:09;;;;;;;16.80;10.68;;;22.40;99.50;;;;;;5054652;28;20119;-76
2022/08/19 07:14:37;;;;;;;14.95;10.75;;;22.60;99.70;;;;;;5057015;28;20025;-78
2022/08/19 07:17:05;;;;;;;15.63;9.98;;;22.60;99.30;;;;;;5051888;28;20109;-78
2022/08/19 07:19:32;;;;;;;14.18;10.30;;;22.60;99.00;;;;;;5055019;28;20025;-79
2022/08/19 07:22:01;;;;;;;13.60;10.40;;;22.70;99.00;;;;;;5072473;28;20033;-79
2022/08/19 07:24:27;;;;;;;16.55;10.38;;;22.80;98.80;;;;;;5055251;28;20032;-79
2022/08/19 07:27:00;;;;;;;13.20;10.55;;;22.80;98.80;;;;;;5054818;28;20119;-78
2022/08/19 07:29:27;;;;;;;13.93;10.35;;;22.80;98.60;;;;;;5055448;28;20043;-79
2022/08/19 07:31:56;;;;;;;16.00;10.48;;;22.90;98.50;;;;;;5054512;28;20032;-78
2022/08/19 07:34:23;;;;;;;14.95;10.70;;;23.00;98.40;;;;;;5055196;28;20033;-79
2022/08/19 07:36:50;;;;;;;13.48;10.02;;;23.00;98.70;;;;;;5054719;28;20031;-77
2022/08/19 07:39:20;;;;;;;14.70;10.25;;;23.00;98.20;;;;;;5055299;28;20035;-78
2022/08/19 07:41:47;;;;;;;12.55;9.60;;;23.10;98.20;;;;;;5072706;28;20063;-79
2022/08/19 07:44:14;;;;;;;13.98;9.80;;;23.10;98.10;;;;;;5055060;28;20078;-78
2022/08/19 07:46:44;;;;;;;15.75;10.73;;;23.10;98.10;;;;;;5055065;28;20052;-78
2022/08/19 07:49:14;;;;;;;13.65;9.30;;;23.10;98.20;;;;;;5054700;28;20424;-78
2022/08/19 07:51:40;;;;;;;12.57;8.50;;;23.10;98.20;;;;;;5054858;28;20383;-78
2022/08/19 07:54:05;;;;;;;12.82;8.93;;;23.10;97.70;;;;;;5054058;28;20037;-78
2022/08/19 07:56:31;;;;;;;15.82;9.02;;;23.10;97.70;;;;;;5072781;28;20025;-78
2022/08/19 07:58:57;;;;;;;12.45;8.48;;;23.10;97.70;;;;;;5054743;28;20033;-79
2022/08/19 08:01:25;;;;;;;14.13;8.75;;;23.10;97.80;;;;;;5056232;28;20056;-78
2022/08/19 08:09:29;;;;;;;12.77;8.60;;;23.20;97.90;;;;;;5075758;28;20035;-77
2022/08/19 08:11:59;;;;;;;11.45;8.48;;;23.20;97.90;;;;;;5057526;28;20072;-78
2022/08/19 08:14:32;;;;;;;13.73;8.02;;;23.10;97.90;;;;;;5075668;28;20033;-78
2022/08/19 08:16:58;;;;;;;10.93;8.02;;;23.20;98.00;;;;;;5075509;28;20051;-78
2022/08/19 08:19:26;;;;;;;12.18;8.07;;;23.20;98.00;;;;;;5057770;28;20029;-77
2022/08/19 08:21:53;;;;;;;10.77;7.28;;;23.20;97.90;;;;;;5057057;28;20064;-78
2022/08/19 08:24:19;;;;;;;9.27;7.25;;;23.20;97.90;;;;;;5057884;28;20064;-78
2022/08/19 08:26:46;;;;;;;8.57;6.93;;;23.40;97.90;;;;;;5057836;28;20060;-78
2022/08/19 08:29:12;;;;;;;11.00;7.70;;;23.50;97.80;;;;;;5075357;28;20036;-78
2022/08/19 08:31:40;;;;;;;10.20;7.57;;;23.60;97.50;;;;;;5057921;28;20028;-78
2022/08/19 08:34:06;;;;;;;12.32;7.45;;;23.70;97.30;;;;;;5057544;28;20107;-77
2022/08/19 08:36:34;;;;;;;12.77;7.68;;;23.80;97.00;;;;;;5057835;28;20032;-78
2022/08/19 08:39:01;;;;;;;11.65;8.07;;;23.90;96.90;;;;;;5057397;28;20027;-78
2022/08/19 08:42:02;;;;;;;9.63;7.57;;;24.00;96.70;;;;;;5057510;28;20052;-78
2022/08/19 08:44:48;;;;;;;9.90;6.88;;;24.10;96.30;;;;;;5057515;28;20036;-78
2022/08/19 08:47:18;;;;;;;12.18;6.70;;;24.20;96.20;;;;;;5056463;28;20032;-78
2022/08/19 08:50:01;;;;;;;7.67;6.10;;;24.20;96.00;;;;;;5057736;28;20489;-78
2022/08/19 08:52:48;;;;;;;9.88;6.10;;;24.30;95.80;;;;;;5075098;28;20089;-78
2022/08/19 08:55:21;;;;;;;9.95;5.57;;;24.40;95.60;;;;;;5056348;28;20036;-78
2022/08/19 08:57:47;;;;;;;8.85;5.47;;;24.40;95.60;;;;;;5074697;28;20031;-78
2022/08/19 09:00:22;;;;;;;8.48;5.80;;;24.50;95.50;;;;;;5056432;28;20028;-78
2022/08/19 09:02:48;;;;;;;8.38;5.43;;;24.50;95.60;;;;;;5074787;28;20107;-78
2022/08/19 09:05:14;;;;;;;6.70;5.28;;;24.50;95.40;;;;;;5056487;28;20033;-78
2022/08/19 09:07:57;;;;;;;7.40;5.10;;;24.50;95.10;;;;;;5057319;28;20028;-78
2022/08/19 09:10:32;;;;;;;7.70;5.60;;;24.40;95.10;;;;;;5056368;28;20028;-78
2022/08/19 09:13:22;;;;;;;6.22;4.40;;;24.40;95.00;;;;;;5073349;28;20024;-78
2022/08/19 09:15:53;;;;;;;9.82;5.30;;;24.40;95.10;;;;;;5071028;28;20494;-78
2022/08/19 09:18:19;;;;;;;6.63;4.82;;;24.40;95.00;;;;;;5056104;28;20033;-77
2022/08/19 09:20:47;;;;;;;8.18;5.68;;;24.40;94.90;;;;;;5056153;28;20162;-77
2022/08/19 09:23:13;;;;;;;7.43;5.15;;;24.40;94.50;;;;;;5055771;28;20056;-77
2022/08/19 09:25:39;;;;;;;7.13;4.70;;;24.40;94.50;;;;;;5058317;28;20109;-77
2022/08/19 09:28:06;;;;;;;9.27;5.22;;;24.30;94.40;;;;;;5063456;28;20020;-76
2022/08/19 09:30:40;;;;;;;8.05;4.93;;;24.30;94.20;;;;;;5056411;28;20025;-78
2022/08/19 09:33:06;;;;;;;14.70;5.80;;;24.40;94.10;;;;;;5073181;28;20055;-78
2022/08/19 09:35:33;;;;;;;6.75;4.55;;;24.50;93.90;;;;;;5056000;28;20028;-77
2022/08/19 09:38:00;;;;;;;7.97;5.15;;;24.40;93.90;;;;;;5055273;28;20028;-79
2022/08/19 09:40:28;;;;;;;8.68;5.05;;;24.50;93.80;;;;;;5063704;28;20401;-78
2022/08/19 09:42:54;;;;;;;7.38;4.75;;;24.50;93.70;;;;;;5065064;28;20059;-80
2022/08/19 09:45:21;;;;;;;7.43;4.80;;;24.50;93.60;;;;;;5070585;28;20125;-79
2022/08/19 09:47:50;;;;;;;7.68;4.93;;;24.50;93.50;;;;;;5074890;28;20458;-77
2022/08/19 09:50:16;;;;;;;8.77;5.35;;;24.50;93.30;;;;;;5054370;28;20025;-77
2022/08/19 09:52:42;;;;;;;6.70;4.75;;;24.60;93.30;;;;;;5055949;28;20489;-77
2022/08/19 09:55:10;;;;;;;7.47;4.63;;;24.60;93.20;;;;;;5055271;28;20033;-77
2022/08/19 09:57:37;;;;;;;5.68;4.85;;;24.70;93.00;;;;;;5054493;28;20032;-76
2022/08/19 10:00:08;;;;;;;7.22;4.75;;;24.70;92.90;;;;;;5065539;28;20449;-77
2022/08/19 10:02:34;;;;;;;;;;;24.70;92.70;;;;;;5071258;28;20032;-76
2022/08/19 10:07:44;;;;;;;6.45;4.35;;;24.70;92.50;;;;;;5084750;28;20023;-77
2022/08/19 10:10:10;;;;;;;6.20;4.78;;;24.80;92.70;;;;;;5087598;28;20029;-77
2022/08/19 10:12:36;;;;;;;5.95;4.68;;;25.00;92.30;;;;;;5062536;28;20051;-77
2022/08/19 10:15:04;;;;;;;5.40;3.97;;;25.10;91.70;;;;;;5091567;28;20032;-77
2022/08/19 10:17:29;;;;;;;5.78;4.50;;;25.20;91.40;;;;;;5093388;28;20035;-76
2022/08/19 10:19:55;;;;;;;5.75;4.00;;;25.40;91.10;;;;;;5075849;28;20024;-77
2022/08/19 10:22:21;;;;;;;5.50;4.45;;;25.60;90.70;;;;;;5085429;28;20025;-76
2022/08/19 10:24:47;;;;;;;5.72;4.30;;;25.70;90.50;;;;;;5072241;28;20477;-77
2022/08/19 10:27:13;;;;;;;8.57;4.40;;;25.80;90.30;;;;;;5054287;28;20115;-77
2022/08/19 10:29:39;;;;;;;8.30;4.28;;;25.80;90.30;;;;;;5071387;28;20032;-77
2022/08/19 10:32:08;;;;;;;6.05;4.05;;;25.90;90.20;;;;;;5054218;28;20033;-77
2022/08/19 10:34:35;;;;;;;5.28;4.05;;;25.90;89.90;;;;;;5054553;28;20393;-77
2022/08/19 10:37:04;;;;;;;5.18;4.10;;;26.00;89.10;;;;;;5083244;28;20024;-76
2022/08/19 10:39:31;;;;;;;6.68;4.63;;;26.00;89.00;;;;;;5074295;28;20086;-76
2022/08/19 10:41:57;;;;;;;6.32;5.13;;;26.10;88.60;;;;;;5074578;28;20497;-77
2022/08/19 10:44:25;;;;;;;7.97;5.45;;;26.10;87.70;;;;;;5084235;28;20048;-76
2022/08/19 10:46:51;;;;;;;6.85;4.97;;;26.10;88.10;;;;;;5064646;28;20454;-76
2022/08/19 10:49:18;;;;;;;6.90;5.32;;;26.10;87.70;;;;;;5076209;28;20029;-76
2022/08/19 10:57:17;;;;;;;6.97;5.35;;;26.20;87.50;;;;;;5057913;28;20040;-76
2022/08/19 10:59:43;;;;;;;9.93;5.22;;;26.20;87.30;;;;;;5071924;28;20028;-78
2022/08/19 11:02:11;;;;;;;5.75;5.03;;;26.10;87.50;;;;;;5089310;28;20047;-77
2022/08/19 11:04:38;;;;;;;6.18;5.40;;;26.10;87.10;;;;;;5064020;28;20020;-78
2022/08/19 11:07:05;;;;;;;6.43;5.20;;;26.20;87.30;;;;;;5066323;28;20055;-79
2022/08/19 11:09:35;;;;;;;4.88;4.38;;;26.20;87.20;;;;;;5066779;28;20024;-77
2022/08/19 11:12:01;;;;;;;47.92;39.47;;;26.30;86.50;;;;;;5063779;28;20036;-83
2022/08/19 11:14:27;;;;;;;9.90;6.25;;;26.40;85.80;;;;;;5093263;28;20095;-79
2022/08/19 11:16:55;;;;;;;6.43;5.22;;;26.50;84.80;;;;;;5091707;28;20178;-80
2022/08/19 11:19:23;;;;;;;8.05;5.22;;;26.60;83.90;;;;;;5092473;28;20024;-79
2022/08/19 11:21:50;;;;;;;7.07;4.93;;;26.60;84.10;;;;;;5092995;28;20085;-78
2022/08/19 11:24:20;;;;;;;7.15;4.80;;;26.70;83.00;;;;;;5092097;28;20492;-78
2022/08/19 11:26:50;;;;;;;6.15;5.03;;;26.80;82.50;;;;;;5092127;28;20034;-78
2022/08/19 11:29:18;;;;;;;7.82;5.38;;;26.90;81.90;;;;;;5078451;28;20348;-79
2022/08/19 11:31:47;;;;;;;5.70;4.97;;;26.90;81.60;;;;;;5067257;28;20466;-80
2022/08/19 11:34:17;;;;;;;6.70;4.60;;;26.90;81.50;;;;;;5059206;28;20040;-80
2022/08/19 11:36:44;;;;;;;8.15;4.65;;;27.00;80.90;;;;;;5089844;28;20028;-79
2022/08/19 11:39:12;;;;;;;4.75;4.20;;;27.20;80.70;;;;;;5078131;28;20024;-79
2022/08/19 11:41:38;;;;;;;6.88;4.97;;;27.10;80.20;;;;;;5078647;28;20063;-80
2022/08/19 11:44:04;;;;;;;5.65;4.07;;;27.10;79.40;;;;;;5058605;28;20115;-80
2022/08/19 11:46:31;;;;;;;6.43;4.40;;;27.00;79.60;;;;;;5059296;28;20070;-80
2022/08/19 11:48:59;;;;;;;5.65;3.80;;;27.00;79.30;;;;;;5076025;28;20048;-80
2022/08/19 11:51:27;;;;;;;6.07;4.32;;;27.10;78.50;;;;;;5073365;28;20024;-79
2022/08/19 11:53:57;;;;;;;5.18;3.88;;;27.30;77.90;;;;;;5061459;28;20345;-79
2022/08/19 11:56:25;;;;;;;4.57;3.92;;;27.40;76.90;;;;;;5078592;28;20512;-77
2022/08/19 11:58:52;;;;;;;5.82;4.07;;;27.20;77.50;;;;;;5096289;28;20033;-78
2022/08/19 12:01:19;;;;;;;4.85;4.35;;;27.10;78.20;;;;;;5095682;28;20024;-77
2022/08/19 12:03:46;;;;;;;6.13;4.75;;;27.10;78.00;;;;;;5078178;28;20032;-77
2022/08/19 12:06:15;;;;;;;4.85;4.22;;;27.00;78.50;;;;;;5095829;28;20036;-77
2022/08/19 12:08:42;;;;;;;5.05;4.28;;;26.90;79.40;;;;;;5077604;28;20390;-78
2022/08/19 12:11:09;;;;;;;5.28;4.07;;;27.00;79.80;;;;;;5077112;28;20028;-77
2022/08/19 12:13:36;;;;;;;5.60;3.88;;;26.90;79.10;;;;;;5078161;28;20481;-78
2022/08/19 12:16:11;;;;;;;7.43;4.22;;;26.80;79.10;;;;;;5077777;28;20115;-78
2022/08/19 12:18:37;;;;;;;4.43;3.80;;;26.80;78.70;;;;;;5078171;28;20025;-78
2022/08/19 12:21:03;;;;;;;5.50;4.30;;;26.80;78.00;;;;;;5095086;28;20061;-78
2022/08/19 12:23:29;;;;;;;4.53;4.10;;;26.80;77.80;;;;;;5079188;28;20489;-77
2022/08/19 12:25:56;;;;;;;5.60;3.55;;;26.80;77.20;;;;;;5060080;28;20029;-77
2022/08/19 12:28:24;;;;;;;7.03;4.18;;;26.70;77.10;;;;;;5075874;28;20024;-78
2022/08/19 12:30:51;;;;;;;5.15;4.03;;;26.70;77.00;;;;;;5095851;28;20028;-78
2022/08/19 12:33:18;;;;;;;6.00;4.18;;;26.80;76.70;;;;;;5077346;28;20063;-78
2022/08/19 12:35:46;;;;;;;5.07;3.70;;;26.90;76.30;;;;;;5095398;28;20028;-77
2022/08/19 12:38:14;;;;;;;5.55;3.88;;;27.10;76.00;;;;;;5076710;28;20027;-77
2022/08/19 12:40:40;;;;;;;6.00;4.30;;;27.40;75.30;;;;;;5068854;28;20135;-78
2022/08/19 12:43:07;;;;;;;5.13;3.80;;;27.90;73.60;;;;;;5087586;28;20060;-80
2022/08/19 12:45:33;;;;;;;4.50;3.90;;;28.30;72.20;;;;;;5061818;28;20028;-82
2022/08/19 12:47:58;;;;;;;4.38;4.00;;;28.40;71.30;;;;;;5077030;28;20084;-83
2022/08/19 12:50:24;;;;;;;7.10;4.03;;;28.70;70.80;;;;;;5088193;28;20115;-82
2022/08/19 12:52:50;;;;;;;4.40;3.85;;;28.60;69.90;;;;;;5057877;28;20450;-80
2022/08/19 12:55:18;;;;;;;4.70;4.20;;;28.50;69.30;;;;;;5057025;28;20528;-80
2022/08/19 12:57:44;;;;;;;5.25;4.07;;;28.40;70.00;;;;;;5058753;28;20174;-80
2022/08/19 13:00:16;;;;;;;3.72;3.13;;;28.30;70.00;;;;;;5088383;28;20496;-78
2022/08/19 13:02:44;;;;;;;4.68;3.42;;;28.20;66.00;;;;;;5057047;28;20035;-79